createdAt,value
2022-09-26T00:02:33.895Z,82.74
2022-09-26T00:05:40.272Z,83.02
2022-09-26T00:08:48.245Z,82.90
2022-09-26T00:11:54.277Z,83.28
2022-09-26T00:15:03.492Z,83.27
2022-09-26T00:18:09.261Z,83.63
2022-09-26T00:21:17.882Z,83.30
2022-09-26T00:24:23.525Z,83.42
2022-09-26T00:27:30.708Z,83.23
2022-09-26T00:30:39.479Z,83.96
2022-09-26T00:33:46.046Z,84.17
2022-09-26T00:36:52.865Z,84.38
2022-09-26T00:39:59.432Z,84.28
2022-09-26T00:43:06.435Z,84.01
2022-09-26T00:46:26.030Z,84.34
2022-09-26T00:49:34.798Z,84.27
2022-09-26T00:52:46.159Z,84.57
2022-09-26T00:55:55.836Z,84.65
2022-09-26T00:59:08.605Z,84.35
2022-09-26T01:02:17.748Z,84.34
2022-09-26T01:05:26.916Z,84.48
2022-09-26T01:08:44.753Z,84.61
2022-09-26T01:11:51.592Z,84.40
2022-09-26T01:15:00.065Z,84.35
2022-09-26T01:18:10.997Z,84.14
2022-09-26T01:21:49.888Z,84.05
2022-09-26T01:25:09.397Z,83.63
2022-09-26T01:28:33.683Z,83.83
2022-09-26T01:32:12.938Z,83.72
2022-09-26T01:35:40.577Z,83.84
2022-09-26T01:38:59.376Z,83.14
2022-09-26T01:42:18.206Z,83.18
2022-09-26T01:45:32.078Z,83.03
2022-09-26T01:48:48.545Z,83.13
2022-09-26T01:52:00.026Z,82.92
2022-09-26T01:55:14.180Z,82.76
2022-09-26T01:58:26.124Z,82.43
2022-09-26T02:01:37.437Z,82.43
2022-09-26T02:04:50.582Z,82.81
2022-09-26T02:08:01.096Z,82.63
2022-09-26T02:11:13.939Z,82.85
2022-09-26T02:14:24.351Z,82.95
2022-09-26T02:17:36.595Z,82.96
2022-09-26T02:20:48.807Z,83.17
2022-09-26T02:23:56.551Z,82.75
2022-09-26T02:27:03.198Z,83.32
2022-09-26T02:30:10.734Z,83.50
2022-09-26T02:33:17.355Z,83.48
2022-09-26T02:36:27.295Z,83.19
2022-09-26T02:39:33.361Z,83.07
2022-09-26T02:42:55.317Z,83.45
2022-09-26T02:46:10.987Z,83.26
2022-09-26T02:49:31.673Z,83.04
2022-09-26T02:52:53.988Z,83.20
2022-09-26T02:56:17.542Z,82.89
2022-09-26T02:59:30.089Z,82.71
2022-09-26T03:02:42.182Z,83.44
2022-09-26T03:05:56.683Z,83.23
2022-09-26T03:09:07.947Z,83.16
2022-09-26T03:12:14.704Z,83.31
2022-09-26T03:15:24.590Z,82.95
2022-09-26T03:18:37.230Z,83.17
2022-09-26T03:21:47.534Z,82.93
2022-09-26T03:24:56.292Z,83.03
2022-09-26T03:28:03.892Z,83.17
2022-09-26T03:31:10.390Z,83.29
2022-09-26T03:34:30.546Z,83.28
2022-09-26T03:37:37.484Z,82.90
2022-09-26T03:40:47.594Z,83.06
2022-09-26T03:44:22.538Z,83.24
2022-09-26T03:47:47.705Z,83.17
2022-09-26T03:50:54.622Z,83.15
2022-09-26T03:54:01.270Z,82.71
2022-09-26T03:57:10.785Z,83.46
2022-09-26T04:00:21.948Z,83.38
2022-09-26T04:03:28.047Z,83.37
2022-09-26T04:06:34.675Z,82.98
2022-09-26T04:09:41.161Z,83.26
2022-09-26T04:12:50.552Z,83.50
2022-09-26T04:15:58.701Z,83.35
2022-09-26T04:19:06.867Z,83.19
2022-09-26T04:22:14.137Z,83.46
2022-09-26T04:25:23.851Z,82.95
2022-09-26T04:28:32.291Z,83.16
2022-09-26T04:31:39.621Z,83.41
2022-09-26T04:34:50.996Z,83.77
2022-09-26T04:37:57.495Z,83.68
2022-09-26T04:41:08.325Z,83.80
2022-09-26T04:44:18.079Z,83.53
2022-09-26T04:47:23.690Z,83.31
2022-09-26T04:50:59.695Z,83.57
2022-09-26T04:54:07.176Z,83.64
2022-09-26T04:57:19.830Z,83.54
2022-09-26T05:00:28.707Z,83.56
2022-09-26T05:03:42.247Z,83.58
2022-09-26T05:06:48.016Z,84.34
2022-09-26T05:10:04.221Z,84.06
2022-09-26T05:13:10.747Z,84.15
2022-09-26T05:16:20.338Z,84.07
2022-09-26T05:19:28.341Z,84.30
2022-09-26T05:22:55.605Z,84.05
2022-09-26T05:26:17.460Z,84.04
2022-09-26T05:29:24.647Z,83.91
2022-09-26T05:32:37.724Z,84.02
2022-09-26T05:35:46.283Z,83.58
2022-09-26T05:38:53.988Z,83.51
2022-09-26T05:41:59.619Z,83.41
2022-09-26T05:45:06.922Z,83.35
2022-09-26T05:48:16.493Z,83.24
2022-09-26T05:51:23.776Z,82.87
2022-09-26T05:54:30.489Z,82.96
2022-09-26T05:57:37.496Z,82.71
2022-09-26T06:00:44.055Z,82.93
2022-09-26T06:03:52.541Z,82.87
2022-09-26T06:07:06.705Z,82.59
2022-09-26T06:10:12.459Z,82.61
2022-09-26T06:13:40.624Z,82.75
2022-09-26T06:16:46.612Z,82.28
2022-09-26T06:19:56.633Z,82.19
2022-09-26T06:23:04.297Z,82.83
2022-09-26T06:26:16.367Z,82.81
2022-09-26T06:29:22.049Z,82.69
2022-09-26T06:32:29.574Z,82.56
2022-09-26T06:36:09.461Z,82.71
2022-09-26T06:39:17.125Z,82.40
2022-09-26T06:42:25.524Z,82.60
2022-09-26T06:45:57.999Z,82.77
2022-09-26T06:49:20.021Z,82.70
2022-09-26T06:52:35.123Z,82.69
2022-09-26T06:55:41.799Z,82.08
2022-09-26T06:58:49.999Z,82.28
2022-09-26T07:01:58.938Z,81.77
2022-09-26T07:05:27.785Z,81.98
2022-09-26T07:09:00.796Z,81.73
2022-09-26T07:12:25.361Z,81.75
2022-09-26T07:15:33.696Z,81.39
2022-09-26T07:18:45.129Z,81.13
2022-09-26T07:21:58.540Z,80.85
2022-09-26T07:25:13.262Z,80.52
2022-09-26T07:28:19.367Z,80.25
2022-09-26T07:31:28.195Z,80.22
2022-09-26T07:34:46.569Z,80.17
2022-09-26T07:37:55.252Z,80.51
2022-09-26T07:41:08.803Z,80.54
2022-09-26T07:45:09.713Z,80.87
2022-09-26T07:47:56.764Z,80.85
2022-09-26T07:51:31.102Z,80.70
2022-09-26T07:54:38.153Z,80.69
2022-09-26T07:58:08.704Z,80.22
2022-09-26T08:01:16.758Z,79.96
2022-09-26T08:04:49.203Z,79.53
2022-09-26T08:07:57.572Z,79.57
2022-09-26T08:11:23.420Z,79.38
2022-09-26T08:14:53.155Z,79.40
2022-09-26T08:18:20.237Z,79.33
2022-09-26T08:21:25.970Z,79.20
2022-09-26T08:24:36.264Z,79.27
2022-09-26T08:27:59.670Z,79.37
2022-09-26T08:31:11.737Z,79.08
2022-09-26T08:34:21.330Z,79.32
2022-09-26T08:37:51.153Z,79.26
2022-09-26T08:41:33.017Z,79.29
2022-09-26T08:45:47.508Z,79.52
2022-09-26T08:49:35.379Z,79.70
2022-09-26T08:52:45.822Z,79.83
2022-09-26T08:55:53.897Z,79.88
2022-09-26T08:59:06.076Z,79.65
2022-09-26T09:02:21.568Z,79.87
2022-09-26T09:05:39.891Z,79.59
2022-09-26T09:08:49.674Z,79.59
2022-09-26T09:12:15.076Z,79.72
2022-09-26T09:15:35.394Z,79.55
2022-09-26T09:19:16.967Z,79.23
2022-09-26T09:23:04.264Z,78.89
2022-09-26T09:30:16.640Z,78.03
2022-09-26T09:33:46.373Z,77.81
2022-09-26T09:37:22.848Z,77.92
2022-09-26T09:41:07.010Z,77.68
2022-09-26T09:44:28.325Z,77.32
2022-09-26T09:47:40.682Z,76.99
2022-09-26T09:50:54.813Z,77.17
2022-09-26T09:54:32.201Z,76.63
2022-09-26T09:57:55.446Z,76.41
2022-09-26T10:01:10.840Z,76.44
2022-09-26T10:04:37.742Z,75.69
2022-09-26T10:07:45.270Z,74.66
2022-09-26T10:11:23.321Z,74.49
2022-09-26T10:14:47.915Z,73.82
2022-09-26T10:18:26.685Z,74.13
2022-09-26T10:21:44.991Z,73.68
2022-09-26T10:24:51.209Z,73.29
2022-09-26T10:28:03.413Z,73.53
2022-09-26T10:31:14.536Z,72.92
2022-09-26T10:34:42.996Z,72.39
2022-09-26T10:37:53.711Z,73.81
2022-09-26T10:40:59.942Z,73.89
2022-09-26T10:44:08.372Z,74.28
2022-09-26T10:47:37.744Z,74.35
2022-09-26T10:51:13.618Z,71.89
2022-09-26T10:54:42.053Z,71.39
2022-09-26T10:57:53.369Z,71.21
2022-09-26T11:01:03.773Z,71.02
2022-09-26T11:04:41.209Z,70.85
2022-09-26T11:08:11.991Z,70.47
2022-09-26T11:11:43.290Z,70.61
2022-09-26T11:14:53.393Z,70.37
2022-09-26T11:17:59.664Z,70.05
2022-09-26T11:21:31.688Z,70.15
2022-09-26T11:24:46.835Z,69.55
2022-09-26T11:28:01.233Z,69.21
2022-09-26T11:31:29.959Z,69.40
2022-09-26T11:35:07.197Z,69.34
2022-09-26T11:38:31.340Z,69.18
2022-09-26T11:41:51.390Z,69.22
2022-09-26T11:45:00.991Z,68.81
2022-09-26T11:49:04.226Z,68.92
2022-09-26T11:52:49.218Z,68.01
2022-09-26T11:56:16.053Z,68.01
2022-09-26T11:59:39.186Z,67.86
2022-09-26T12:03:26.585Z,67.68
2022-09-26T12:06:35.975Z,68.03
2022-09-26T12:09:56.397Z,68.13
2022-09-26T12:13:16.574Z,68.07
2022-09-26T12:16:29.651Z,67.52
2022-09-26T12:19:45.222Z,67.33
2022-09-26T12:22:59.273Z,67.31
2022-09-26T12:26:17.257Z,67.05
2022-09-26T12:29:45.378Z,66.89
2022-09-26T12:33:21.952Z,66.24
2022-09-26T12:36:47.637Z,65.90
2022-09-26T12:40:10.372Z,65.88
2022-09-26T12:43:47.541Z,66.04
2022-09-26T12:47:21.412Z,65.68
2022-09-26T12:50:39.890Z,65.24
2022-09-26T12:53:55.833Z,65.51
2022-09-26T12:57:09.903Z,65.64
2022-09-26T13:00:21.745Z,64.89
2022-09-26T13:03:47.936Z,64.74
2022-09-26T13:07:19.334Z,64.89
2022-09-26T13:10:41.103Z,65.33
2022-09-26T13:14:15.035Z,65.57
2022-09-26T13:17:24.326Z,65.78
2022-09-26T13:20:38.247Z,65.53
2022-09-26T13:23:54.052Z,65.81
2022-09-26T13:27:09.337Z,65.48
2022-09-26T13:30:24.460Z,64.77
2022-09-26T13:33:36.873Z,64.78
2022-09-26T13:36:48.186Z,64.98
2022-09-26T13:40:03.705Z,63.70
2022-09-26T13:43:23.804Z,64.11
2022-09-26T13:46:40.135Z,64.07
2022-09-26T13:49:59.062Z,64.35
2022-09-26T13:53:21.525Z,64.31
2022-09-26T13:56:44.236Z,64.66
2022-09-26T13:59:55.425Z,64.71
2022-09-26T14:03:17.473Z,64.22
2022-09-26T14:07:28.586Z,63.82
2022-09-26T14:10:39.407Z,63.43
2022-09-26T14:13:44.980Z,63.86
2022-09-26T14:16:53.220Z,63.10
2022-09-26T14:20:05.140Z,63.79
2022-09-26T14:23:38.613Z,62.80
2022-09-26T14:26:47.743Z,63.16
2022-09-26T14:29:56.488Z,63.63
2022-09-26T14:33:06.315Z,63.61
2022-09-26T14:36:38.038Z,63.74
2022-09-26T14:39:47.033Z,63.68
2022-09-26T14:43:03.319Z,63.60
2022-09-26T14:46:20.664Z,63.45
2022-09-26T14:49:31.326Z,63.79
2022-09-26T14:52:40.038Z,63.99
2022-09-26T14:55:59.344Z,64.71
2022-09-26T14:59:42.572Z,64.39
2022-09-26T15:02:50.614Z,65.06
2022-09-26T15:05:56.434Z,65.84
2022-09-26T15:09:12.574Z,66.18
2022-09-26T15:12:25.427Z,66.28
2022-09-26T15:15:59.371Z,65.20
2022-09-26T15:19:14.228Z,65.32
2022-09-26T15:22:23.961Z,65.63
2022-09-26T15:25:35.787Z,66.24
2022-09-26T15:28:42.436Z,66.72
2022-09-26T15:31:51.486Z,67.01
2022-09-26T15:34:59.140Z,67.58
2022-09-26T15:38:07.126Z,67.88
2022-09-26T15:41:38.230Z,68.10
2022-09-26T15:44:51.218Z,68.59
2022-09-26T15:48:03.355Z,69.24
2022-09-26T15:51:19.283Z,69.89
2022-09-26T15:54:31.387Z,70.52
2022-09-26T15:57:37.289Z,70.97
2022-09-26T16:00:47.759Z,71.42
2022-09-26T16:04:06.265Z,71.35
2022-09-26T16:07:21.925Z,71.49
2022-09-26T16:10:31.361Z,71.68
2022-09-26T16:13:43.130Z,71.99
2022-09-26T16:16:48.885Z,71.88
2022-09-26T16:20:00.519Z,72.22
2022-09-26T16:23:07.679Z,72.36
2022-09-26T16:26:25.042Z,72.26
2022-09-26T16:29:36.012Z,72.60
2022-09-26T16:32:42.564Z,72.70
2022-09-26T16:35:51.889Z,72.79
2022-09-26T16:39:00.885Z,72.83
2022-09-26T16:42:17.450Z,72.96
2022-09-26T16:45:24.030Z,73.23
2022-09-26T16:48:41.979Z,73.13
2022-09-26T16:52:29.710Z,73.06
2022-09-26T16:55:37.930Z,73.29
2022-09-26T16:58:50.868Z,73.49
2022-09-26T17:01:58.244Z,73.70
2022-09-26T17:05:07.206Z,73.73
2022-09-26T17:08:16.433Z,74.02
2022-09-26T17:11:23.162Z,74.15
2022-09-26T17:14:36.742Z,74.08
2022-09-26T17:17:46.836Z,74.24
2022-09-26T17:20:52.917Z,74.67
2022-09-26T17:24:06.358Z,75.09
2022-09-26T17:27:18.219Z,75.50
2022-09-26T17:30:25.165Z,75.90
2022-09-26T17:33:32.576Z,76.28
2022-09-26T17:36:39.488Z,76.27
2022-09-26T17:39:47.915Z,75.96
2022-09-26T17:42:55.825Z,76.16
2022-09-26T17:46:06.902Z,76.53
2022-09-26T17:49:17.867Z,76.87
2022-09-26T17:52:29.148Z,77.03
2022-09-26T17:55:38.853Z,77.09
2022-09-26T17:58:47.298Z,77.04
2022-09-26T18:02:00.446Z,76.87
2022-09-26T18:05:19.076Z,77.36
2022-09-26T18:08:28.878Z,77.23
2022-09-26T18:11:38.229Z,77.24
2022-09-26T18:14:46.499Z,77.65
2022-09-26T18:17:52.782Z,77.48
2022-09-26T18:21:04.092Z,77.66
2022-09-26T18:24:19.460Z,78.00
2022-09-26T18:27:29.592Z,78.75
2022-09-26T18:30:35.458Z,78.84
2022-09-26T18:33:42.475Z,78.90
2022-09-26T18:36:51.761Z,78.81
2022-09-26T18:40:03.631Z,78.98
2022-09-26T18:43:14.427Z,79.11
2022-09-26T18:46:22.984Z,79.38
2022-09-26T18:49:29.433Z,79.14
2022-09-26T18:52:36.235Z,79.04
2022-09-26T18:56:12.259Z,79.04
2022-09-26T18:59:23.588Z,79.24
2022-09-26T19:02:40.749Z,78.69
2022-09-26T19:05:47.514Z,78.88
2022-09-26T19:08:59.339Z,78.65
2022-09-26T19:12:08.392Z,78.64
2022-09-26T19:15:20.602Z,78.26
2022-09-26T19:18:27.743Z,79.00
2022-09-26T19:21:37.305Z,78.72
2022-09-26T19:24:46.719Z,79.06
2022-09-26T19:27:54.576Z,79.40
2022-09-26T19:31:06.442Z,79.07
2022-09-26T19:34:17.154Z,79.16
2022-09-26T19:37:23.924Z,79.35
2022-09-26T19:40:30.873Z,79.60
2022-09-26T19:43:38.141Z,79.32
2022-09-26T19:46:49.119Z,79.50
2022-09-26T19:49:55.948Z,79.51
2022-09-26T19:53:04.637Z,79.68
2022-09-26T19:56:11.977Z,79.30
2022-09-26T19:59:18.200Z,79.57
2022-09-26T20:02:34.460Z,80.13
2022-09-26T20:05:40.260Z,80.23
2022-09-26T20:08:47.401Z,80.09
2022-09-26T20:11:53.417Z,80.42
2022-09-26T20:14:59.933Z,80.17
2022-09-26T20:18:15.581Z,80.38
2022-09-26T20:21:24.882Z,80.45
2022-09-26T20:24:31.540Z,80.26
2022-09-26T20:27:38.235Z,80.47
2022-09-26T20:30:56.914Z,80.32
2022-09-26T20:34:06.398Z,80.36
2022-09-26T20:37:14.241Z,80.40
2022-09-26T20:40:24.473Z,80.50
2022-09-26T20:43:35.128Z,80.69
2022-09-26T20:46:52.509Z,80.82
2022-09-26T20:50:06.265Z,81.12
2022-09-26T20:53:19.561Z,80.73
2022-09-26T20:56:25.582Z,80.63
2022-09-26T20:59:35.143Z,80.54
2022-09-26T21:02:42.315Z,80.68
2022-09-26T21:05:51.652Z,80.52
2022-09-26T21:08:57.608Z,80.57
2022-09-26T21:12:06.253Z,80.66
2022-09-26T21:15:15.331Z,80.44
2022-09-26T21:18:27.151Z,80.23
2022-09-26T21:21:35.571Z,80.48
2022-09-26T21:24:58.089Z,80.32
2022-09-26T21:28:09.359Z,80.27
2022-09-26T21:31:23.967Z,80.32
2022-09-26T21:34:31.126Z,80.57
2022-09-26T21:37:40.620Z,80.84
2022-09-26T21:40:48.046Z,80.97
2022-09-26T21:44:03.322Z,80.81
2022-09-26T21:47:09.118Z,80.41
2022-09-26T21:50:20.465Z,80.71
2022-09-26T21:53:34.818Z,80.78
2022-09-26T21:56:50.601Z,80.65
2022-09-26T21:59:56.803Z,80.68
2022-09-26T22:03:04.020Z,81.02
2022-09-26T22:06:12.640Z,81.04
2022-09-26T22:09:26.107Z,80.89
2022-09-26T22:12:31.796Z,81.29
2022-09-26T22:15:38.415Z,81.13
2022-09-26T22:18:44.683Z,81.02
2022-09-26T22:21:51.288Z,81.18
2022-09-26T22:25:04.090Z,81.51
2022-09-26T22:28:10.943Z,81.56
2022-09-26T22:31:16.730Z,81.78
2022-09-26T22:34:23.637Z,81.96
2022-09-26T22:37:29.407Z,81.81
2022-09-26T22:40:38.810Z,81.82
2022-09-26T22:43:44.683Z,81.75
2022-09-26T22:46:51.203Z,81.62
2022-09-26T22:49:56.886Z,81.53
2022-09-26T22:53:03.472Z,81.88
2022-09-26T22:56:15.164Z,82.14
2022-09-26T22:59:21.868Z,82.37
2022-09-26T23:02:27.625Z,82.16
2022-09-26T23:05:34.170Z,82.10
2022-09-26T23:08:40.491Z,82.59
2022-09-26T23:11:49.892Z,82.28
2022-09-26T23:14:55.662Z,82.01
2022-09-26T23:18:02.851Z,82.06
2022-09-26T23:21:10.250Z,81.61
2022-09-26T23:24:17.264Z,82.03
2022-09-26T23:27:26.441Z,82.06
2022-09-26T23:30:33.480Z,81.79
2022-09-26T23:33:39.471Z,82.25
2022-09-26T23:36:46.953Z,81.82
2022-09-26T23:39:52.904Z,81.87
2022-09-26T23:43:02.819Z,81.98
2022-09-26T23:46:09.692Z,81.96
2022-09-26T23:49:16.330Z,81.83
2022-09-26T23:52:22.173Z,82.02
2022-09-26T23:55:28.757Z,81.91
2022-09-26T23:58:37.357Z,81.81
